Time;durP1;ratioP1;P1;durP2;ratioP2;P2;SDS_P1;SDS_P2;PMS_P1;PMS_P2;Temp;Humidity;BMP_temperature;BMP_pressure;BME280_temperature;BME280_humidity;BME280_pressure;Samples;Min_cycle;Max_cycle;Signal;HPM_P1;HPM_P2
2022/03/20 00:02:22;;;;;;;;;;;;;;;;;;4422028;32;20347;-75
2022/03/20 00:04:47;;;;;;;12.37;2.53;;;;;;;;;;4435461;32;19948;-75
2022/03/20 00:07:12;;;;;;;;;;;;;;;;;;4422345;32;20025;-78
2022/03/20 00:09:40;;;;;;;5.93;2.20;;;;;;;;;;4435979;32;19967;-76
2022/03/20 00:12:06;;;;;;;8.85;2.30;;;;;;;;;;4432318;32;20030;-73
2022/03/20 00:14:31;;;;;;;6.80;2.28;;;;;;;;;;4435085;32;20070;-74
2022/03/20 00:16:56;;;;;;;;;;;;;;;;;;4436617;32;20025;-76
2022/03/20 00:19:21;;;;;;;7.82;2.20;;;;;;;;;;4437579;32;20307;-75
2022/03/20 00:21:46;;;;;;;;;;;;;;;;;;4421342;32;20065;-78
2022/03/20 00:24:12;;;;;;;6.43;2.80;;;;;;;;;;4436868;32;19940;-73
2022/03/20 00:26:39;;;;;;;;;;;;;;;;;;4436589;32;20056;-75
2022/03/20 00:29:04;;;;;;;5.90;3.05;;;;;;;;;;4421718;32;19952;-74
2022/03/20 00:31:32;;;;;;;7.90;2.53;;;;;;;;;;4418029;32;20045;-74
2022/03/20 00:33:57;;;;;;;8.55;3.15;;;;;;;;;;4406163;32;20030;-74
2022/03/20 00:36:22;;;;;;;7.60;2.47;;;;;;;;;;4421521;32;20022;-76
2022/03/20 00:38:47;;;;;;;7.35;2.80;;;;;;;;;;4420580;32;20019;-74
2022/03/20 00:41:12;;;;;;;;;;;;;;;;;;4420074;32;20058;-74
2022/03/20 00:43:38;;;;;;;7.65;2.85;;;;;;;;;;4420994;32;19959;-74
2022/03/20 00:46:04;;;;;;;;;;;;;;;;;;4421330;32;20460;-75
2022/03/20 00:48:29;;;;;;;7.20;4.07;;;;;;;;;;4406470;32;19944;-74
2022/03/20 00:50:54;;;;;;;;;;;;;;;;;;4435845;32;20025;-74
2022/03/20 00:53:19;;;;;;;6.82;3.17;;;;;;;;;;4420571;32;20269;-74
2022/03/20 00:55:44;;;;;;;;;;;;;;;;;;4435002;32;20047;-74
2022/03/20 00:58:11;;;;;;;9.75;3.58;;;;;;;;;;4428744;32;19951;-74
2022/03/20 01:00:37;;;;;;;4.72;3.20;;;;;;;;;;4419665;32;20321;-75
2022/03/20 01:03:02;;;;;;;11.70;4.18;;;;;;;;;;4420289;32;20048;-76
2022/03/20 01:05:27;;;;;;;;;;;;;;;;;;4417080;32;20119;-73
2022/03/20 01:07:52;;;;;;;7.50;4.30;;;;;;;;;;4421497;32;19933;-77
2022/03/20 01:10:18;;;;;;;;;;;;;;;;;;4423746;32;20066;-74
2022/03/20 01:12:43;;;;;;;9.70;4.18;;;;;;;;;;4435478;32;19933;-75
2022/03/20 01:15:08;;;;;;;;;;;;;;;;;;4436674;32;20053;-73
2022/03/20 01:17:34;;;;;;;7.30;4.75;;;;;;;;;;4435261;32;19948;-73
2022/03/20 01:19:59;;;;;;;;;;;;;;;;;;4435044;32;20026;-75
2022/03/20 01:22:24;;;;;;;9.63;5.57;;;;;;;;;;4434993;32;19960;-73
2022/03/20 01:24:49;;;;;;;;;;;;;;;;;;4432598;32;20041;-73
2022/03/20 01:27:15;;;;;;;10.35;5.15;;;;;;;;;;4421389;32;19945;-73
2022/03/20 01:29:40;;;;;;;8.55;5.93;;;;;;;;;;4422742;32;20166;-73
2022/03/20 01:32:05;;;;;;;;;;;;;;;;;;4423039;32;20056;-75
2022/03/20 01:34:31;;;;;;;13.50;6.57;;;;;;;;;;4408793;32;19941;-74
2022/03/20 01:36:57;;;;;;;;;;;;;;;;;;4423614;32;20203;-73
2022/03/20 01:39:22;;;;;;;8.95;6.40;;;;;;;;;;4435996;26;20009;-78
2022/03/20 01:41:47;;;;;;;10.27;5.78;;;;;;;;;;4424590;32;20030;-79
2022/03/20 01:44:12;;;;;;;;;;;;;;;;;;4421993;32;20118;-78
2022/03/20 01:46:37;;;;;;;12.98;6.55;;;;;;;;;;4418962;32;19968;-78
2022/03/20 01:49:03;;;;;;;;;;;;;;;;;;4406094;32;20143;-78
2022/03/20 01:54:12;;;;;;;11.60;7.30;;;;;;;;;;4428490;32;20093;-78
2022/03/20 01:56:42;;;;;;;10.48;7.50;;;;;;;;;;4419159;32;20419;-78
2022/03/20 01:59:07;;;;;;;13.75;6.78;;;;;;;;;;4419115;32;20121;-79
2022/03/20 02:01:32;;;;;;;15.30;8.53;;;;;;;;;;4425568;32;20137;-78
2022/03/20 02:03:57;;;;;;;13.73;8.23;;;;;;;;;;4421654;32;20244;-78
2022/03/20 02:06:24;;;;;;;;;;;;;;;;;;4420034;32;20375;-78
2022/03/20 02:08:49;;;;;;;15.82;8.48;;;;;;;;;;4419686;32;19948;-78
2022/03/20 02:11:14;;;;;;;15.85;8.80;;;;;;;;;;4419422;32;20285;-79
2022/03/20 02:13:39;;;;;;;;;;;;;;;;;;4435292;32;20022;-78
2022/03/20 02:16:05;;;;;;;14.77;8.95;;;;;;;;;;4434548;32;20310;-78
2022/03/20 02:18:30;;;;;;;;;;;;;;;;;;4420127;32;20029;-78
2022/03/20 02:20:57;;;;;;;13.75;9.15;;;;;;;;;;4433680;32;19940;-78
2022/03/20 02:23:22;;;;;;;16.10;9.85;;;;;;;;;;4428218;32;20096;-78
2022/03/20 02:25:48;;;;;;;16.33;9.77;;;;;;;;;;4434135;32;20352;-78
2022/03/20 02:28:13;;;;;;;;;;;;;;;;;;4431654;32;20137;-78
2022/03/20 02:30:38;;;;;;;16.17;9.90;;;;;;;;;;4405535;32;19980;-78
2022/03/20 02:33:03;;;;;;;;;;;;;;;;;;4419953;32;20111;-78
2022/03/20 02:35:31;;;;;;;16.83;10.40;;;;;;;;;;4417921;32;19934;-78
2022/03/20 02:37:57;;;;;;;16.40;10.52;;;;;;;;;;4404941;32;20063;-78
2022/03/20 02:40:22;;;;;;;18.55;10.27;;;;;;;;;;4418980;32;20320;-79
2022/03/20 02:42:51;;;;;;;19.23;10.57;;;;;;;;;;4418344;32;20050;-78
2022/03/20 02:45:30;;;;;;;17.80;10.40;;;;;;;;;;4413618;32;20063;-78
2022/03/20 02:47:56;;;;;;;16.85;9.82;;;;;;;;;;4434491;32;20077;-78
2022/03/20 02:50:21;;;;;;;;;;;;;;;;;;4432793;32;20044;-78
2022/03/20 02:52:46;;;;;;;17.70;11.25;;;;;;;;;;4417589;32;19996;-78
2022/03/20 02:55:11;;;;;;;;;;;;;;;;;;4429143;32;20121;-78
2022/03/20 02:57:37;;;;;;;22.73;11.10;;;;;;;;;;4404695;32;19948;-78
2022/03/20 03:00:03;;;;;;;;;;;;;;;;;;4418252;32;20450;-78
2022/03/20 03:02:30;;;;;;;17.48;10.82;;;;;;;;;;4420709;32;19973;-78
2022/03/20 03:04:57;;;;;;;16.73;9.93;;;;;;;;;;4428227;32;20021;-78
2022/03/20 03:07:22;;;;;;;17.77;10.18;;;;;;;;;;4443424;32;20045;-78
2022/03/20 03:12:31;;;;;;;16.25;10.23;;;;;;;;;;4434930;32;20117;-77
2022/03/20 03:17:40;;;;;;;13.25;9.25;;;;;;;;;;4433201;32;20152;-77
2022/03/20 03:20:06;;;;;;;16.30;10.88;;;;;;;;;;4431833;32;20034;-77
2022/03/20 03:22:31;;;;;;;;;;;;;;;;;;4424501;32;20076;-77
2022/03/20 03:24:56;;;;;;;15.35;10.45;;;;;;;;;;4404848;32;20090;-77
2022/03/20 03:27:21;;;;;;;;;;;;;;;;;;4418857;32;20088;-78
2022/03/20 03:29:46;;;;;;;15.00;10.32;;;;;;;;;;4405619;32;20351;-77
2022/03/20 03:32:11;;;;;;;;;;;;;;;;;;4433904;32;20034;-77
2022/03/20 03:37:22;;;;;;;13.60;8.68;;;;;;;;;;4432656;32;20140;-77
2022/03/20 03:39:47;;;;;;;15.77;10.10;;;;;;;;;;4432162;32;20228;-77
2022/03/20 03:42:12;;;;;;;15.43;9.90;;;;;;;;;;4433983;32;20481;-77
2022/03/20 03:44:39;;;;;;;;;;;;;;;;;;4432849;32;20048;-78
2022/03/20 03:47:04;;;;;;;16.65;9.77;;;;;;;;;;4432542;32;20001;-78
2022/03/20 03:49:30;;;;;;;18.10;10.68;;;;;;;;;;4432519;32;20030;-78
2022/03/20 03:51:55;;;;;;;;;;;;;;;;;;4418991;32;20022;-78
2022/03/20 03:54:20;;;;;;;19.58;10.13;;;;;;;;;;4418225;32;19941;-78
2022/03/20 03:56:45;;;;;;;20.88;10.13;;;;;;;;;;4432200;32;20157;-78
2022/03/20 03:59:11;;;;;;;;;;;;;;;;;;4432565;32;20030;-79
2022/03/20 04:01:36;;;;;;;21.42;10.40;;;;;;;;;;4433946;32;19941;-78
2022/03/20 04:04:01;;;;;;;15.63;9.98;;;;;;;;;;4433241;32;20109;-78
2022/03/20 04:06:27;;;;;;;;;;;;;;;;;;4432231;32;20021;-78
2022/03/20 04:08:53;;;;;;;15.88;10.02;;;;;;;;;;4419589;32;19953;-78
2022/03/20 04:11:19;;;;;;;16.98;9.10;;;;;;;;;;4433854;32;20022;-77
2022/03/20 04:13:44;;;;;;;;;;;;;;;;;;4432720;32;20133;-78
2022/03/20 04:16:09;;;;;;;13.65;9.23;;;;;;;;;;4418871;32;19973;-78
2022/03/20 04:18:34;;;;;;;;;;;;;;;;;;4434033;32;20097;-78
2022/03/20 04:20:59;;;;;;;20.42;11.27;;;;;;;;;;4432267;32;19937;-78
2022/03/20 04:23:45;;;;;;;15.52;9.93;;;;;;;;;;4433183;32;20147;-78
2022/03/20 04:26:11;;;;;;;14.70;10.73;;;;;;;;;;4419223;32;20022;-78
2022/03/20 04:28:36;;;;;;;16.73;10.73;;;;;;;;;;4431489;32;20112;-78
2022/03/20 04:31:01;;;;;;;;;;;;;;;;;;4417443;32;20086;-78
2022/03/20 04:33:29;;;;;;;19.95;10.80;;;;;;;;;;4404713;32;19941;-78
2022/03/20 04:35:54;;;;;;;20.17;11.35;;;;;;;;;;4416849;32;20113;-78
2022/03/20 04:38:21;;;;;;;17.55;11.18;;;;;;;;;;4417131;32;20388;-77
2022/03/20 04:40:46;;;;;;;17.42;11.35;;;;;;;;;;4416822;32;20117;-77
2022/03/20 04:43:11;;;;;;;16.65;11.02;;;;;;;;;;4423651;32;20085;-78
2022/03/20 04:45:36;;;;;;;;;;;;;;;;;;4433935;32;20135;-77
2022/03/20 04:58:57;;;;;;;18.90;11.70;;;;;;;;;;4432246;32;20063;-77
2022/03/20 05:01:22;;;;;;;;;;;;;;;;;;4430427;32;20057;-77
2022/03/20 05:03:48;;;;;;;19.05;11.95;;;;;;;;;;4436431;32;19936;-77
2022/03/20 05:06:13;;;;;;;;;;;;;;;;;;4436106;32;20057;-77
2022/03/20 05:08:39;;;;;;;18.73;11.38;;;;;;;;;;4428239;32;19933;-78
2022/03/20 05:13:49;;;;;;;21.15;12.30;;;;;;;;;;4436230;32;20041;-77
2022/03/20 05:16:14;;;;;;;;;;;;;;;;;;4434681;32;20706;-78
2022/03/20 05:18:39;;;;;;;25.20;12.88;;;;;;;;;;4434332;32;19941;-78
2022/03/20 05:21:04;;;;;;;;;;;;;;;;;;4435346;32;20033;-78
2022/03/20 05:23:29;;;;;;;22.08;12.18;;;;;;;;;;4435788;32;20048;-78
2022/03/20 05:25:54;;;;;;;;;;;;;;;;;;4421443;32;20179;-78
2022/03/20 05:28:21;;;;;;;21.17;11.85;;;;;;;;;;4433648;32;19947;-78
2022/03/20 05:30:46;;;;;;;20.05;12.45;;;;;;;;;;4433909;32;20082;-78
2022/03/20 05:33:12;;;;;;;24.98;13.05;;;;;;;;;;4435064;32;20110;-78
2022/03/20 05:35:37;;;;;;;;;;;;;;;;;;4428783;32;20088;-78
2022/03/20 05:38:02;;;;;;;20.02;11.70;;;;;;;;;;4423425;32;19941;-78
2022/03/20 05:40:27;;;;;;;;;;;;;;;;;;4435352;32;20041;-78
2022/03/20 05:42:52;;;;;;;23.60;11.95;;;;;;;;;;4434553;32;20321;-79
2022/03/20 05:45:17;;;;;;;;;;;;;;;;;;4434449;32;20140;-78
2022/03/20 05:47:43;;;;;;;20.17;11.63;;;;;;;;;;4428706;32;20276;-77
2022/03/20 05:50:08;;;;;;;;;;;;;;;;;;4418079;32;20089;-78
2022/03/20 05:52:35;;;;;;;20.85;12.95;;;;;;;;;;4418843;32;20083;-78
2022/03/20 05:55:04;;;;;;;24.90;12.52;;;;;;;;;;4420091;32;20210;-78
2022/03/20 06:00:23;;;;;;;29.52;16.02;;;;;;;;;;4433755;32;20102;-77
2022/03/20 06:02:48;;;;;;;;;;;;;;;;;;4421697;32;20104;-77
2022/03/20 06:05:13;;;;;;;20.08;12.18;;;;;;;;;;4433535;32;19988;-77
2022/03/20 06:07:38;;;;;;;;;;;;;;;;;;4436844;32;20285;-78
2022/03/20 06:10:04;;;;;;;27.30;12.85;;;;;;;;;;4435336;32;19976;-77
2022/03/20 06:12:29;;;;;;;;;;;;;;;;;;4434769;32;20317;-77
2022/03/20 06:14:54;;;;;;;23.87;13.32;;;;;;;;;;4420380;32;20371;-77
2022/03/20 06:17:20;;;;;;;;;;;;;;;;;;4435892;32;20034;-77
2022/03/20 06:19:46;;;;;;;18.90;13.23;;;;;;;;;;4424968;32;19962;-78
2022/03/20 06:22:11;;;;;;;22.67;12.43;;;;;;;;;;4438130;32;20029;-78
2022/03/20 06:24:37;;;;;;;;;;;;;;;;;;4427048;32;20059;-78
2022/03/20 06:27:02;;;;;;;26.30;13.40;;;;;;;;;;4420918;32;19970;-78
2022/03/20 06:29:28;;;;;;;24.80;13.88;;;;;;;;;;4433688;32;20486;-78
2022/03/20 06:31:53;;;;;;;;;;;;;;;;;;4430758;32;20061;-78
2022/03/20 06:34:18;;;;;;;22.85;13.77;;;;;;;;;;4419234;32;19951;-77
2022/03/20 06:36:44;;;;;;;;;;;;;;;;;;4420991;32;20034;-78
2022/03/20 06:39:09;;;;;;;24.40;14.40;;;;;;;;;;4426329;32;19940;-77
2022/03/20 06:41:36;;;;;;;21.62;12.73;;;;;;;;;;4419901;32;20134;-78
2022/03/20 06:44:04;;;;;;;22.75;13.80;;;;;;;;;;4427169;32;20077;-77
2022/03/20 06:46:29;;;;;;;27.45;14.98;;;;;;;;;;4413422;32;20085;-77
2022/03/20 06:48:55;;;;;;;23.70;14.27;;;;;;;;;;4429130;32;20075;-78
2022/03/20 06:51:22;;;;;;;;;;;;;;;;;;4433579;32;20366;-77
2022/03/20 06:53:47;;;;;;;20.85;12.85;;;;;;;;;;4420813;32;19933;-78
2022/03/20 06:56:13;;;;;;;;;;;;;;;;;;4433339;32;20081;-78
2022/03/20 06:58:39;;;;;;;20.08;13.60;;;;;;;;;;4433680;32;19966;-77
2022/03/20 07:01:04;;;;;;;;;;;;;;;;;;4419446;32;20096;-78
2022/03/20 07:03:29;;;;;;;22.75;13.40;;;;;;;;;;4433213;32;19984;-77
2022/03/20 07:05:54;;;;;;;;;;;;;;;;;;4419701;32;20170;-77
2022/03/20 07:08:20;;;;;;;23.98;14.27;;;;;;;;;;4432603;32;19940;-78
2022/03/20 07:10:45;;;;;;;;;;;;;;;;;;4443436;32;20048;-78
2022/03/20 07:15:57;;;;;;;24.70;13.85;;;;;;;;;;4434255;32;20083;-78
2022/03/20 07:18:23;;;;;;;27.35;14.50;;;;;;;;;;4433197;32;20056;-78
2022/03/20 07:20:48;;;;;;;25.95;14.85;;;;;;;;;;4419276;32;20034;-78
2022/03/20 07:23:13;;;;;;;;;;;;;;;;;;4419910;32;20068;-78
2022/03/20 07:31:07;;;;;;;22.45;15.25;;;;;;;;;;4423490;32;20148;-78
2022/03/20 07:33:33;;;;;;;25.45;14.63;;;;;;;;;;4433712;32;20230;-80
2022/03/20 07:35:59;;;;;;;;;;;;;;;;;;4432954;32;20052;-79
2022/03/20 07:38:24;;;;;;;21.15;14.18;;;;;;;;;;4419386;32;19965;-78
2022/03/20 07:40:50;;;;;;;21.85;13.80;;;;;;;;;;4420071;32;20197;-78
2022/03/20 07:43:15;;;;;;;;;;;;;;;;;;4435558;32;20289;-78
2022/03/20 07:45:40;;;;;;;26.70;15.10;;;;;;;;;;4433825;32;19990;-78
2022/03/20 07:48:05;;;;;;;;;;;;;;;;;;4434570;32;20030;-78
2022/03/20 07:50:30;;;;;;;22.75;15.02;;;;;;;;;;4433712;32;20279;-79
2022/03/20 07:53:00;;;;;;;;;;;;;;;;;;4430905;32;20207;-78
2022/03/20 07:55:27;;;;;;;26.48;15.68;;;;;;;;;;4413928;32;19976;-79
2022/03/20 07:57:52;;;;;;;27.60;13.48;;;;;;;;;;4420139;32;20027;-79
2022/03/20 08:00:17;;;;;;;25.50;14.52;;;;;;;;;;4416135;32;20026;-79
2022/03/20 08:02:43;;;;;;;;;;;;;;;;;;4433530;32;20084;-79
2022/03/20 08:05:08;;;;;;;26.95;15.00;;;;;;;;;;4430797;32;19991;-78
2022/03/20 08:07:37;;;;;;;22.27;15.13;;;;;;;;;;4432898;32;20164;-79
2022/03/20 08:10:09;;;;;;;27.65;14.93;;;;;;;;;;4419080;32;20025;-79
2022/03/20 08:12:34;;;;;;;27.40;14.52;;;;;;;;;;4416299;32;20069;-79
2022/03/20 08:15:00;;;;;;;22.92;14.63;;;;;;;;;;4425673;32;20141;-78
2022/03/20 08:17:25;;;;;;;;;;;;;;;;;;4420838;32;20109;-78
2022/03/20 08:19:50;;;;;;;23.77;15.20;;;;;;;;;;4434260;32;19932;-80
2022/03/20 08:22:15;;;;;;;;;;;;;;;;;;4430431;32;20043;-79
2022/03/20 08:24:42;;;;;;;24.83;14.77;;;;;;;;;;4416193;32;19938;-79
2022/03/20 08:27:07;;;;;;;29.67;15.05;;;;;;;;;;4417018;32;20180;-79
2022/03/20 08:29:32;;;;;;;24.55;15.63;;;;;;;;;;4415795;32;20335;-79
2022/03/20 08:31:58;;;;;;;25.63;15.23;;;;;;;;;;4432538;32;20022;-78
2022/03/20 08:34:23;;;;;;;;;;;;;;;;;;4433588;32;20281;-78
2022/03/20 08:36:48;;;;;;;24.98;16.65;;;;;;;;;;4432588;32;19977;-78
2022/03/20 08:39:13;;;;;;;;;;;;;;;;;;4433668;32;20135;-78
2022/03/20 08:41:39;;;;;;;21.80;13.38;;;;;;;;;;4419951;32;19941;-78
2022/03/20 08:44:08;;;;;;;;;;;;;;;;;;4438291;32;20114;-78
2022/03/20 08:46:33;;;;;;;22.62;15.00;;;;;;;;;;4436133;32;19945;-79
2022/03/20 08:49:03;;;;;;;29.27;15.23;;;;;;;;;;4438012;32;20108;-80
2022/03/20 08:51:28;;;;;;;24.87;15.23;;;;;;;;;;4424587;32;20078;-78
2022/03/20 08:53:54;;;;;;;23.77;16.02;;;;;;;;;;4422986;32;20084;-79
2022/03/20 08:56:20;;;;;;;;;;;;;;;;;;4433905;32;20063;-78
2022/03/20 08:58:46;;;;;;;24.87;14.85;;;;;;;;;;4418883;32;20214;-77
2022/03/20 09:01:11;;;;;;;;;;;;;;;;;;4433708;32;20148;-78
2022/03/20 09:03:36;;;;;;;26.25;15.32;;;;;;;;;;4432485;32;19936;-77
2022/03/20 09:06:02;;;;;;;23.50;15.53;;;;;;;;;;4433433;32;20434;-78
2022/03/20 09:08:27;;;;;;;26.50;18.43;;;;;;;;;;4431831;32;20196;-78
2022/03/20 09:10:52;;;;;;;24.80;15.17;;;;;;;;;;4405195;32;20120;-78
2022/03/20 09:13:17;;;;;;;;;;;;;;;;;;4432928;32;20440;-79
2022/03/20 09:15:42;;;;;;;25.80;16.37;;;;;;;;;;4432804;32;19965;-79
2022/03/20 09:20:51;;;;;;;27.65;16.33;;;;;;;;;;4434231;32;19936;-80
2022/03/20 09:23:17;;;;;;;24.67;16.27;;;;;;;;;;4434367;32;20030;-81
2022/03/20 09:25:42;;;;;;;29.20;16.55;;;;;;;;;;4444979;32;20059;-80
2022/03/20 09:28:07;;;;;;;;;;;;;;;;;;4449428;32;20002;-81
2022/03/20 09:30:33;;;;;;;23.77;14.38;;;;;;;;;;4437369;32;19941;-80
2022/03/20 09:33:01;;;;;;;26.12;16.70;;;;;;;;;;4434121;32;20471;-81
2022/03/20 09:35:26;;;;;;;23.10;15.63;;;;;;;;;;4433678;32;20037;-80
2022/03/20 09:37:51;;;;;;;28.15;16.62;;;;;;;;;;4419747;32;20373;-80
2022/03/20 09:40:18;;;;;;;;;;;;;;;;;;4432615;32;20042;-80
2022/03/20 09:42:43;;;;;;;23.52;16.30;;;;;;;;;;4419093;32;19937;-79
2022/03/20 09:45:09;;;;;;;21.05;15.43;;;;;;;;;;4433164;32;20060;-81
2022/03/20 09:47:34;;;;;;;;;;;;;;;;;;4434250;32;20030;-79
2022/03/20 09:49:59;;;;;;;31.20;16.98;;;;;;;;;;4437694;32;19967;-79
2022/03/20 09:52:25;;;;;;;;;;;;;;;;;;4439427;32;20187;-80
2022/03/20 09:54:51;;;;;;;25.35;18.05;;;;;;;;;;4438024;32;19989;-80
2022/03/20 09:57:16;;;;;;;31.00;16.00;;;;;;;;;;4439512;32;20395;-80
2022/03/20 09:59:41;;;;;;;;;;;;;;;;;;4437680;32;20124;-80
2022/03/20 10:02:10;;;;;;;28.62;18.12;;;;;;;;;;4421874;32;19971;-79
2022/03/20 10:04:54;;;;;;;32.33;16.67;;;;;;;;;;4422030;32;20354;-79
2022/03/20 10:07:23;;;;;;;24.20;16.12;;;;;;;;;;4434191;32;20038;-79
2022/03/20 10:10:05;;;;;;;24.63;17.37;;;;;;;;;;4406008;32;20375;-82
2022/03/20 10:12:31;;;;;;;27.05;17.65;;;;;;;;;;4405324;32;20022;-80
2022/03/20 10:14:56;;;;;;;28.77;19.20;;;;;;;;;;4425542;32;20030;-81
2022/03/20 10:17:21;;;;;;;32.17;18.23;;;;;;;;;;4425152;32;20121;-80
2022/03/20 10:19:46;;;;;;;;;;;;;;;;;;4424250;32;20052;-80
2022/03/20 10:22:14;;;;;;;30.70;18.27;;;;;;;;;;4422745;32;19945;-80
2022/03/20 10:24:46;;;;;;;31.60;20.95;;;;;;;;;;4430565;32;20366;-80
2022/03/20 10:27:13;;;;;;;32.50;20.02;;;;;;;;;;4435425;32;20082;-81
2022/03/20 10:29:48;;;;;;;31.77;19.67;;;;;;;;;;4421938;32;20056;-79
2022/03/20 10:32:13;;;;;;;31.33;20.15;;;;;;;;;;4422043;32;20338;-80
2022/03/20 10:34:52;;;;;;;33.70;22.10;;;;;;;;;;4433800;32;20041;-81
2022/03/20 10:37:18;;;;;;;34.72;22.62;;;;;;;;;;4434452;32;20045;-80
2022/03/20 10:39:43;;;;;;;33.58;22.70;;;;;;;;;;4419763;32;20472;-80
2022/03/20 10:42:09;;;;;;;;;;;;;;;;;;4426709;32;20121;-81
2022/03/20 10:44:34;;;;;;;40.50;23.10;;;;;;;;;;4434044;32;19968;-80
2022/03/20 10:46:59;;;;;;;;;;;;;;;;;;4434389;32;20071;-82
2022/03/20 10:49:24;;;;;;;31.58;20.67;;;;;;;;;;4435794;32;19928;-80
2022/03/20 10:51:50;;;;;;;;;;;;;;;;;;4419686;32;20033;-79
2022/03/20 10:54:20;;;;;;;39.17;22.70;;;;;;;;;;4435334;32;20094;-80
2022/03/20 10:56:53;;;;;;;38.22;22.52;;;;;;;;;;4421720;32;20202;-80
2022/03/20 10:59:18;;;;;;;35.15;21.73;;;;;;;;;;4433999;32;20070;-80
2022/03/20 11:01:44;;;;;;;32.35;22.20;;;;;;;;;;4420894;32;20073;-81
2022/03/20 11:04:09;;;;;;;;;;;;;;;;;;4419587;32;20052;-81
2022/03/20 11:06:35;;;;;;;39.63;22.02;;;;;;;;;;4426063;32;19940;-80
2022/03/20 11:09:02;;;;;;;34.00;21.27;;;;;;;;;;4439606;32;20030;-81
2022/03/20 11:11:28;;;;;;;30.33;19.67;;;;;;;;;;4424671;32;20025;-81
2022/03/20 11:13:54;;;;;;;33.55;20.62;;;;;;;;;;4424544;32;20514;-80
2022/03/20 11:16:19;;;;;;;;;;;;;;;;;;4441389;32;20117;-80
2022/03/20 11:18:47;;;;;;;28.25;17.65;;;;;;;;;;4419345;32;19992;-81
2022/03/20 11:21:13;;;;;;;28.95;20.17;;;;;;;;;;4421883;32;20408;-79
2022/03/20 11:23:39;;;;;;;33.38;22.45;;;;;;;;;;4408075;32;20049;-80
2022/03/20 11:26:04;;;;;;;;;;;;;;;;;;4420616;32;20106;-78
2022/03/20 11:28:35;;;;;;;31.25;20.88;;;;;;;;;;4420124;32;19979;-78
2022/03/20 11:31:00;;;;;;;31.80;21.90;;;;;;;;;;4413363;32;20185;-78
2022/03/20 11:33:26;;;;;;;34.30;22.00;;;;;;;;;;4432928;32;20037;-78
2022/03/20 11:35:51;;;;;;;35.03;23.00;;;;;;;;;;4419573;32;20072;-78
2022/03/20 11:38:16;;;;;;;;;;;;;;;;;;4444767;32;20029;-78
2022/03/20 11:41:01;;;;;;;31.40;22.02;;;;;;;;;;4429677;32;19975;-77
2022/03/20 11:43:27;;;;;;;36.35;24.27;;;;;;;;;;4418360;32;20156;-76
2022/03/20 11:46:13;;;;;;;36.00;23.15;;;;;;;;;;4429271;32;20097;-78
2022/03/20 11:48:39;;;;;;;36.25;24.83;;;;;;;;;;4413109;32;20454;-78
2022/03/20 11:51:04;;;;;;;;;;;;;;;;;;4433214;32;20052;-79
2022/03/20 11:53:29;;;;;;;34.80;23.50;;;;;;;;;;4431406;32;19959;-78
2022/03/20 11:55:54;;;;;;;;;;;;;;;;;;4419136;32;20026;-78
2022/03/20 11:58:21;;;;;;;31.75;23.23;;;;;;;;;;4418401;32;19936;-78
2022/03/20 12:00:57;;;;;;;35.58;25.25;;;;;;;;;;4432547;32;20375;-79
2022/03/20 12:03:45;;;;;;;33.15;23.50;;;;;;;;;;4418118;32;20053;-79
2022/03/20 12:06:10;;;;;;;32.30;24.60;;;;;;;;;;4412493;32;20026;-78
2022/03/20 12:09:05;;;;;;;35.72;24.00;;;;;;;;;;4432126;32;20018;-78
2022/03/20 12:11:35;;;;;;;38.47;24.60;;;;;;;;;;4421398;32;20071;-79
2022/03/20 12:14:06;;;;;;;31.15;23.05;;;;;;;;;;4432696;32;20383;-79
2022/03/20 12:16:47;;;;;;;32.53;24.17;;;;;;;;;;4432915;32;20060;-79
2022/03/20 12:19:13;;;;;;;34.95;25.42;;;;;;;;;;4432961;32;20026;-78
2022/03/20 12:21:53;;;;;;;35.58;24.60;;;;;;;;;;4433859;32;20034;-79
2022/03/20 12:24:49;;;;;;;35.00;24.12;;;;;;;;;;4432750;32;20047;-78
2022/03/20 12:27:22;;;;;;;32.17;23.62;;;;;;;;;;4432730;32;20053;-78
2022/03/20 12:30:02;;;;;;;34.25;23.60;;;;;;;;;;4421102;32;20034;-81
2022/03/20 12:32:51;;;;;;;34.70;24.95;;;;;;;;;;4402902;32;20060;-79
2022/03/20 12:35:17;;;;;;;32.97;23.90;;;;;;;;;;4430025;32;20041;-79
2022/03/20 12:37:44;;;;;;;32.20;23.83;;;;;;;;;;4404041;32;20117;-78
2022/03/20 12:40:19;;;;;;;36.03;23.52;;;;;;;;;;4432010;32;20045;-79
2022/03/20 12:42:56;;;;;;;35.65;24.35;;;;;;;;;;4411983;32;20061;-78
2022/03/20 12:45:22;;;;;;;33.42;25.50;;;;;;;;;;4418573;32;20052;-78
2022/03/20 12:47:47;;;;;;;;;;;;;;;;;;4410467;32;20097;-77
2022/03/20 12:50:14;;;;;;;38.72;26.10;;;;;;;;;;4425035;32;19957;-77
2022/03/20 12:52:39;;;;;;;36.10;24.95;;;;;;;;;;4435451;32;20029;-79
2022/03/20 12:55:04;;;;;;;;;;;;;;;;;;4433527;32;20103;-80
2022/03/20 12:57:43;;;;;;;35.47;25.73;;;;;;;;;;4433136;32;19937;-75
2022/03/20 13:00:16;;;;;;;35.72;25.75;;;;;;;;;;4418878;32;20131;-76
2022/03/20 13:03:00;;;;;;;38.13;26.90;;;;;;;;;;4431889;32;20078;-78
2022/03/20 13:05:26;;;;;;;33.85;26.02;;;;;;;;;;4432584;32;20411;-80
2022/03/20 13:07:53;;;;;;;38.90;28.35;;;;;;;;;;4433654;32;20041;-78
2022/03/20 13:10:18;;;;;;;40.38;27.33;;;;;;;;;;4431688;32;20103;-79
2022/03/20 13:12:43;;;;;;;;;;;;;;;;;;4419351;32;20061;-83
2022/03/20 13:15:09;;;;;;;36.23;25.87;;;;;;;;;;4433008;32;19974;-85
2022/03/20 13:17:36;;;;;;;;;;;;;;;;;;4432773;32;20143;-78
2022/03/20 13:20:14;;;;;;;34.13;25.97;;;;;;;;;;4432054;32;19970;-80
2022/03/20 13:22:39;;;;;;;40.20;26.27;;;;;;;;;;4433529;32;20157;-79
2022/03/20 13:25:15;;;;;;;37.57;26.63;;;;;;;;;;4436124;32;20349;-80
2022/03/20 13:27:40;;;;;;;40.38;25.92;;;;;;;;;;4435623;32;20121;-79
2022/03/20 13:30:05;;;;;;;37.60;25.88;;;;;;;;;;4435622;32;20101;-79
2022/03/20 13:32:30;;;;;;;34.22;26.30;;;;;;;;;;4435092;32;20126;-79
2022/03/20 13:34:56;;;;;;;36.22;27.73;;;;;;;;;;4437661;32;20138;-79
2022/03/20 13:37:21;;;;;;;;;;;;;;;;;;4438753;32;20033;-80
2022/03/20 13:39:47;;;;;;;33.95;26.98;;;;;;;;;;4424404;32;20246;-80
2022/03/20 13:42:15;;;;;;;37.80;27.70;;;;;;;;;;4437743;32;20030;-79
2022/03/20 13:44:40;;;;;;;33.47;26.40;;;;;;;;;;4439081;32;20059;-78
2022/03/20 13:47:05;;;;;;;35.83;27.30;;;;;;;;;;4432478;32;20336;-80
2022/03/20 13:49:31;;;;;;;36.95;27.92;;;;;;;;;;4432447;32;20134;-78
2022/03/20 13:51:56;;;;;;;;;;;;;;;;;;4443474;32;20002;-81
2022/03/20 13:54:25;;;;;;;35.60;27.52;;;;;;;;;;4450876;32;19984;-80
2022/03/20 13:57:10;;;;;;;38.30;29.00;;;;;;;;;;4426833;32;20025;-80
2022/03/20 13:59:47;;;;;;;32.67;25.27;;;;;;;;;;4424333;32;20100;-80
2022/03/20 14:02:12;;;;;;;36.88;27.33;;;;;;;;;;4426950;32;20022;-81
2022/03/20 14:04:38;;;;;;;46.70;31.50;;;;;;;;;;4436960;32;20018;-82
2022/03/20 14:07:04;;;;;;;;;;;;;;;;;;4422486;32;20029;-81
2022/03/20 14:09:32;;;;;;;36.92;27.20;;;;;;;;;;4422262;32;19953;-81
2022/03/20 14:11:58;;;;;;;36.25;28.30;;;;;;;;;;4436583;32;20030;-81
2022/03/20 14:14:40;;;;;;;39.60;27.08;;;;;;;;;;4426410;32;20108;-80
2022/03/20 14:17:07;;;;;;;33.50;26.48;;;;;;;;;;4426237;32;20026;-81
2022/03/20 14:19:45;;;;;;;35.63;26.75;;;;;;;;;;4437608;32;20112;-81
2022/03/20 14:22:10;;;;;;;34.85;27.20;;;;;;;;;;4433962;32;20056;-82
2022/03/20 14:24:55;;;;;;;34.15;26.65;;;;;;;;;;4421560;32;20101;-83
2022/03/20 14:27:27;;;;;;;36.95;25.92;;;;;;;;;;4413861;32;20049;-82
2022/03/20 14:41:19;;;;;;;38.15;28.27;;;;;;;;;;4436744;32;20487;-81
2022/03/20 14:43:44;;;;;;;39.33;28.30;;;;;;;;;;4440065;32;20099;-82
2022/03/20 14:46:09;;;;;;;;;;;;;;;;;;4430767;32;20022;-82
2022/03/20 14:48:34;;;;;;;41.08;28.48;;;;;;;;;;4416494;32;20029;-82
2022/03/20 14:51:01;;;;;;;;;;;;;;;;;;4432596;32;20030;-81
2022/03/20 14:53:32;;;;;;;37.92;28.15;;;;;;;;;;4436861;32;20238;-82
2022/03/20 14:55:58;;;;;;;35.33;26.58;;;;;;;;;;4436268;32;20009;-82
2022/03/20 14:58:23;;;;;;;;;;;;;;;;;;4425791;32;20053;-83
2022/03/20 15:00:49;;;;;;;39.28;27.62;;;;;;;;;;4420883;32;19957;-83
2022/03/20 15:03:14;;;;;;;;;;;;;;;;;;4411279;32;20065;-83
2022/03/20 15:05:39;;;;;;;43.30;30.27;;;;;;;;;;4434546;32;19933;-83
2022/03/20 15:13:32;;;;;;;39.05;27.80;;;;;;;;;;4435805;32;20048;-83
2022/03/20 15:15:57;;;;;;;;;;;;;;;;;;4422184;32;20021;-84
2022/03/20 15:18:22;;;;;;;36.40;25.95;;;;;;;;;;4424510;32;19988;-84
2022/03/20 15:20:47;;;;;;;;;;;;;;;;;;4420709;32;20432;-84
2022/03/20 15:23:12;;;;;;;36.20;27.33;;;;;;;;;;4417869;32;20031;-85
2022/03/20 15:25:37;;;;;;;;;;;;;;;;;;4435843;32;20089;-84
2022/03/20 15:28:03;;;;;;;41.35;27.90;;;;;;;;;;4419336;32;19985;-85
2022/03/20 15:30:28;;;;;;;;;;;;;;;;;;4416507;32;20061;-85
2022/03/20 15:32:54;;;;;;;41.22;28.80;;;;;;;;;;4431905;32;19979;-87
2022/03/20 15:35:20;;;;;;;40.45;27.83;;;;;;;;;;4420832;32;20438;-86
2022/03/20 15:37:46;;;;;;;;;;;;;;;;;;4435331;32;20097;-81
2022/03/20 15:40:11;;;;;;;36.10;27.45;;;;;;;;;;4431318;32;19953;-82
2022/03/20 15:42:36;;;;;;;;;;;;;;;;;;4429426;32;20367;-84
2022/03/20 15:45:05;;;;;;;40.20;27.45;;;;;;;;;;4420564;32;19944;-83
2022/03/20 15:47:30;;;;;;;44.10;28.77;;;;;;;;;;4420464;32;20021;-84
2022/03/20 15:49:55;;;;;;;;;;;;;;;;;;4433752;32;20323;-82
2022/03/20 15:52:20;;;;;;;41.05;29.60;;;;;;;;;;4434611;32;19933;-82